createdAt,value
2022-08-26T00:01:08.457Z,23.48
2022-08-26T00:03:12.824Z,23.47
2022-08-26T00:05:16.601Z,23.45
2022-08-26T00:07:19.388Z,23.41
2022-08-26T00:09:22.986Z,23.40
2022-08-26T00:11:28.251Z,23.38
2022-08-26T00:13:31.527Z,23.34
2022-08-26T00:15:34.295Z,23.34
2022-08-26T00:17:37.106Z,23.31
2022-08-26T00:19:51.862Z,23.30
2022-08-26T00:21:56.182Z,23.27
2022-08-26T00:23:58.743Z,23.27
2022-08-26T00:26:03.620Z,23.27
2022-08-26T00:28:07.275Z,23.25
2022-08-26T00:30:14.942Z,23.23
2022-08-26T00:32:17.666Z,23.24
2022-08-26T00:34:20.335Z,23.25
2022-08-26T00:36:22.986Z,23.24
2022-08-26T00:38:26.272Z,23.25
2022-08-26T00:40:35.582Z,23.23
2022-08-26T00:42:38.526Z,23.24
2022-08-26T00:44:48.693Z,23.23
2022-08-26T00:47:01.139Z,23.24
2022-08-26T00:49:13.846Z,23.24
2022-08-26T00:51:20.163Z,23.25
2022-08-26T00:53:27.966Z,23.27
2022-08-26T00:55:41.170Z,23.20
2022-08-26T00:57:44.894Z,23.13
2022-08-26T00:59:52.968Z,22.91
2022-08-26T01:01:57.059Z,22.58
2022-08-26T01:04:00.311Z,22.37
2022-08-26T01:06:04.068Z,22.19
2022-08-26T01:08:08.368Z,22.01
2022-08-26T01:10:15.587Z,21.85
2022-08-26T01:12:22.008Z,21.82
2022-08-26T01:14:29.678Z,21.83
2022-08-26T01:16:33.547Z,21.90
2022-08-26T01:18:36.499Z,21.97
2022-08-26T01:20:58.325Z,22.06
2022-08-26T01:23:07.111Z,22.14
2022-08-26T01:25:12.182Z,22.21
2022-08-26T01:27:18.522Z,22.29
2022-08-26T01:29:21.289Z,22.35
2022-08-26T01:31:26.585Z,22.42
2022-08-26T01:33:47.678Z,22.52
2022-08-26T01:35:51.440Z,22.58
2022-08-26T01:37:55.404Z,22.65
2022-08-26T01:39:58.160Z,22.72
2022-08-26T01:42:03.512Z,22.79
2022-08-26T01:44:09.792Z,22.84
2022-08-26T01:46:14.707Z,22.90
2022-08-26T01:48:23.354Z,22.96
2022-08-26T01:50:30.702Z,23.05
2022-08-26T01:52:38.664Z,23.12
2022-08-26T01:54:41.227Z,23.20
2022-08-26T01:56:49.823Z,23.26
2022-08-26T01:58:58.411Z,23.32
2022-08-26T02:01:01.304Z,23.36
2022-08-26T02:03:19.110Z,23.43
2022-08-26T02:05:22.324Z,23.49
2022-08-26T02:07:26.699Z,23.57
2022-08-26T02:09:29.677Z,23.61
2022-08-26T02:11:34.343Z,23.66
2022-08-26T02:13:43.979Z,23.59
2022-08-26T02:15:47.806Z,23.56
2022-08-26T02:17:52.683Z,23.50
2022-08-26T02:19:56.539Z,23.47
2022-08-26T02:22:03.646Z,23.48
2022-08-26T02:24:15.284Z,23.47
2022-08-26T02:26:19.594Z,23.34
2022-08-26T02:28:22.247Z,23.22
2022-08-26T02:30:32.220Z,23.21
2022-08-26T02:32:35.257Z,23.13
2022-08-26T02:34:37.894Z,23.04
2022-08-26T02:36:41.187Z,22.99
2022-08-26T02:38:43.775Z,22.97
2022-08-26T02:40:48.815Z,22.77
2022-08-26T02:42:55.976Z,22.75
2022-08-26T02:44:59.957Z,22.71
2022-08-26T02:47:03.516Z,22.79
2022-08-26T02:49:07.833Z,22.90
2022-08-26T02:51:11.567Z,23.00
2022-08-26T02:53:16.440Z,23.13
2022-08-26T02:55:27.041Z,23.21
2022-08-26T02:57:29.531Z,23.13
2022-08-26T02:59:32.747Z,23.12
2022-08-26T03:01:36.697Z,23.10
2022-08-26T03:03:39.239Z,23.06
2022-08-26T03:05:42.746Z,23.03
2022-08-26T03:07:46.027Z,22.97
2022-08-26T03:09:48.633Z,22.93
2022-08-26T03:11:55.681Z,22.93
2022-08-26T03:13:59.210Z,22.94
2022-08-26T03:16:05.409Z,22.95
2022-08-26T03:18:08.047Z,22.99
2022-08-26T03:20:11.548Z,23.02
2022-08-26T03:22:16.238Z,23.04
2022-08-26T03:24:18.904Z,23.12
2022-08-26T03:26:21.548Z,23.15
2022-08-26T03:28:24.262Z,23.19
2022-08-26T03:30:44.873Z,23.23
2022-08-26T03:32:48.232Z,23.25
2022-08-26T03:34:50.940Z,23.29
2022-08-26T03:36:54.420Z,23.31
2022-08-26T03:38:57.928Z,23.35
2022-08-26T03:41:01.209Z,23.35
2022-08-26T03:43:06.402Z,23.36
2022-08-26T03:45:14.699Z,23.35
2022-08-26T03:47:17.942Z,23.34
2022-08-26T03:49:20.711Z,23.36
2022-08-26T03:51:23.623Z,23.40
2022-08-26T03:53:27.155Z,23.43
2022-08-26T03:55:34.182Z,23.49
2022-08-26T03:57:36.957Z,23.57
2022-08-26T03:59:41.300Z,23.61
2022-08-26T04:01:44.037Z,23.63
2022-08-26T04:04:00.491Z,23.66
2022-08-26T04:06:04.098Z,23.68
2022-08-26T04:08:07.429Z,23.67
2022-08-26T04:10:12.106Z,23.68
2022-08-26T04:12:15.791Z,23.68
2022-08-26T04:14:22.413Z,23.71
2022-08-26T04:16:26.069Z,23.73
2022-08-26T04:18:33.208Z,23.73
2022-08-26T04:20:39.983Z,23.68
2022-08-26T04:22:42.570Z,23.71
2022-08-26T04:24:46.691Z,23.71
2022-08-26T04:26:50.499Z,23.73
2022-08-26T04:28:55.079Z,23.81
2022-08-26T04:30:58.036Z,23.90
2022-08-26T04:33:00.740Z,23.98
2022-08-26T04:35:05.122Z,24.20
2022-08-26T04:37:09.701Z,24.36
2022-08-26T04:39:16.792Z,24.47
2022-08-26T04:41:21.869Z,24.57
2022-08-26T04:43:30.744Z,24.70
2022-08-26T04:45:40.709Z,24.88
2022-08-26T04:47:43.339Z,25.07
2022-08-26T04:49:46.073Z,25.24
2022-08-26T04:51:52.954Z,25.39
2022-08-26T04:53:57.381Z,25.49
2022-08-26T04:56:00.111Z,25.62
2022-08-26T04:58:02.869Z,25.74
2022-08-26T05:00:09.001Z,25.83
2022-08-26T05:02:12.050Z,25.85
2022-08-26T05:04:16.267Z,25.93
2022-08-26T05:06:22.022Z,26.01
2022-08-26T05:08:25.089Z,26.11
2022-08-26T05:10:29.179Z,26.14
2022-08-26T05:12:32.025Z,26.20
2022-08-26T05:14:34.539Z,26.25
2022-08-26T05:16:40.323Z,26.31
2022-08-26T05:18:45.122Z,26.38
2022-08-26T05:20:54.629Z,26.46
2022-08-26T05:23:00.835Z,26.51
2022-08-26T05:25:03.546Z,26.55
2022-08-26T05:27:07.425Z,26.62
2022-08-26T05:29:14.440Z,26.62
2022-08-26T05:31:24.404Z,26.64
2022-08-26T05:33:27.130Z,26.66
2022-08-26T05:35:32.230Z,26.71
2022-08-26T05:37:38.039Z,26.75
2022-08-26T05:39:41.312Z,26.77
2022-08-26T05:41:46.155Z,26.77
2022-08-26T05:43:48.723Z,26.75
2022-08-26T05:45:51.584Z,26.83
2022-08-26T05:47:54.482Z,26.87
2022-08-26T05:49:57.124Z,26.89
2022-08-26T05:51:59.744Z,26.85
2022-08-26T05:54:03.742Z,26.85
2022-08-26T05:56:08.608Z,26.88
2022-08-26T05:58:12.608Z,26.91
2022-08-26T06:00:16.306Z,26.95
2022-08-26T06:02:19.409Z,26.99
2022-08-26T06:04:28.549Z,27.03
2022-08-26T06:06:35.703Z,27.05
2022-08-26T06:08:38.362Z,27.13
2022-08-26T06:11:05.989Z,27.25
2022-08-26T06:13:11.828Z,27.28
2022-08-26T06:15:15.848Z,27.35
2022-08-26T06:17:18.579Z,27.38
2022-08-26T06:19:22.100Z,27.39
2022-08-26T06:21:30.493Z,27.47
2022-08-26T06:23:51.978Z,27.56
2022-08-26T06:25:54.754Z,27.61
2022-08-26T06:27:57.395Z,27.63
2022-08-26T06:29:59.991Z,27.66
2022-08-26T06:32:03.829Z,27.67
2022-08-26T06:34:10.530Z,27.70
2022-08-26T06:36:22.993Z,27.72
2022-08-26T06:38:26.164Z,27.78
2022-08-26T06:40:29.075Z,27.82
2022-08-26T06:42:33.236Z,27.85
2022-08-26T06:44:36.595Z,27.94
2022-08-26T06:46:40.268Z,28.00
2022-08-26T06:48:43.958Z,28.06
2022-08-26T06:50:47.742Z,28.14
2022-08-26T06:52:54.016Z,28.19
2022-08-26T06:54:58.836Z,28.31
2022-08-26T06:57:01.574Z,28.33
2022-08-26T06:59:04.865Z,28.39
2022-08-26T07:01:25.496Z,28.47
2022-08-26T07:03:28.389Z,28.51
2022-08-26T07:05:32.492Z,28.58
2022-08-26T07:07:35.665Z,28.66
2022-08-26T07:09:39.192Z,28.70
2022-08-26T07:11:42.780Z,28.78
2022-08-26T07:13:50.881Z,28.90
2022-08-26T07:15:58.384Z,28.95
2022-08-26T07:18:09.688Z,29.00
2022-08-26T07:20:16.222Z,29.02
2022-08-26T07:22:20.186Z,29.10
2022-08-26T07:24:23.827Z,29.13
2022-08-26T07:26:31.864Z,29.21
2022-08-26T07:28:35.023Z,29.25
2022-08-26T07:30:41.372Z,29.33
2022-08-26T07:32:44.490Z,29.36
2022-08-26T07:34:47.161Z,29.39
2022-08-26T07:36:51.725Z,29.34
2022-08-26T07:38:55.265Z,29.32
2022-08-26T07:40:57.829Z,29.34
2022-08-26T07:43:01.121Z,29.37
2022-08-26T07:45:05.243Z,29.40
2022-08-26T07:47:10.065Z,29.43
2022-08-26T07:49:28.091Z,29.50
2022-08-26T07:51:31.741Z,29.52
2022-08-26T07:53:35.201Z,29.62
2022-08-26T07:55:38.527Z,29.67
2022-08-26T07:57:42.391Z,29.68
2022-08-26T07:59:44.989Z,29.74
2022-08-26T08:01:48.510Z,29.69
2022-08-26T08:03:53.485Z,29.61
2022-08-26T08:05:56.917Z,29.58
2022-08-26T08:08:27.246Z,29.62
2022-08-26T08:10:26.693Z,29.68
2022-08-26T08:12:29.365Z,29.77
2022-08-26T08:14:31.958Z,29.86
2022-08-26T08:16:36.333Z,29.90
2022-08-26T08:18:40.856Z,29.90
2022-08-26T08:20:47.733Z,29.93
2022-08-26T08:23:07.273Z,30.01
2022-08-26T08:25:10.661Z,30.05
2022-08-26T08:27:14.072Z,30.13
2022-08-26T08:29:16.626Z,30.20
2022-08-26T08:31:52.122Z,30.16
2022-08-26T08:33:48.849Z,30.00
2022-08-26T08:35:55.263Z,30.01
2022-08-26T08:37:58.121Z,29.98
2022-08-26T08:40:00.884Z,30.01
2022-08-26T08:42:06.667Z,29.97
2022-08-26T08:44:15.701Z,29.96
2022-08-26T08:46:22.932Z,30.11
2022-08-26T08:48:31.033Z,30.17
2022-08-26T08:50:41.287Z,30.23
2022-08-26T08:52:50.209Z,30.38
2022-08-26T08:54:54.027Z,30.47
2022-08-26T08:57:04.010Z,30.53
2022-08-26T08:59:51.019Z,30.57
2022-08-26T09:02:15.361Z,30.43
2022-08-26T09:04:30.178Z,30.43
2022-08-26T09:06:32.894Z,30.55
2022-08-26T09:08:37.109Z,30.67
2022-08-26T09:10:49.881Z,30.77
2022-08-26T09:12:53.033Z,30.76
2022-08-26T09:15:03.338Z,30.87
2022-08-26T09:17:40.372Z,31.00
2022-08-26T09:19:54.650Z,30.94
2022-08-26T09:21:59.175Z,30.95
2022-08-26T09:24:01.834Z,30.78
2022-08-26T09:26:29.334Z,30.57
2022-08-26T09:28:33.457Z,30.51
2022-08-26T09:30:36.598Z,30.47
2022-08-26T09:32:39.352Z,30.46
2022-08-26T09:35:00.288Z,30.42
2022-08-26T09:37:04.690Z,30.49
2022-08-26T09:39:28.216Z,30.52
2022-08-26T09:41:34.131Z,30.60
2022-08-26T09:43:37.104Z,30.74
2022-08-26T09:45:50.138Z,30.89
2022-08-26T09:47:57.254Z,31.00
2022-08-26T09:50:29.268Z,31.21
2022-08-26T09:52:32.111Z,31.06
2022-08-26T09:54:35.355Z,30.90
2022-08-26T09:56:39.396Z,30.83
2022-08-26T09:58:45.077Z,30.83
2022-08-26T10:00:56.760Z,30.85
2022-08-26T10:03:01.742Z,30.84
2022-08-26T10:05:09.645Z,30.94
2022-08-26T10:07:13.399Z,31.07
2022-08-26T10:09:18.942Z,31.08
2022-08-26T10:11:39.937Z,31.14
2022-08-26T10:13:51.103Z,31.19
2022-08-26T10:16:01.941Z,31.27
2022-08-26T10:18:13.372Z,31.42
2022-08-26T10:20:23.435Z,31.54
2022-08-26T10:22:44.410Z,31.47
2022-08-26T10:24:56.429Z,31.46
2022-08-26T10:27:14.598Z,31.53
2022-08-26T10:29:23.489Z,31.50
2022-08-26T10:31:40.095Z,31.59
2022-08-26T10:33:43.363Z,31.76
2022-08-26T10:35:53.702Z,31.92
2022-08-26T10:38:01.892Z,31.83
2022-08-26T10:40:14.645Z,31.96
2022-08-26T10:42:30.433Z,32.05
2022-08-26T10:44:37.649Z,32.01
2022-08-26T10:47:12.984Z,32.09
2022-08-26T10:49:18.196Z,32.06
2022-08-26T10:51:29.790Z,32.22
2022-08-26T10:53:56.742Z,32.14
2022-08-26T10:56:18.694Z,32.27
2022-08-26T10:59:12.257Z,32.28
2022-08-26T11:01:47.032Z,32.35
2022-08-26T11:04:22.771Z,32.27
2022-08-26T11:06:30.705Z,32.35
2022-08-26T11:08:33.535Z,32.31
2022-08-26T11:10:38.669Z,32.28
2022-08-26T11:12:42.036Z,32.40
2022-08-26T11:14:53.425Z,32.53
2022-08-26T11:17:00.420Z,32.81
2022-08-26T11:19:04.050Z,33.00
2022-08-26T11:21:51.456Z,33.17
2022-08-26T11:23:53.989Z,33.23
2022-08-26T11:25:57.472Z,33.26
2022-08-26T11:28:00.933Z,33.33
2022-08-26T11:30:19.732Z,33.53
2022-08-26T11:32:48.786Z,33.48
2022-08-26T11:34:56.374Z,33.20
2022-08-26T11:37:01.633Z,33.08
2022-08-26T11:39:36.817Z,32.94
2022-08-26T11:41:46.550Z,33.15
2022-08-26T11:43:52.347Z,33.28
2022-08-26T11:46:07.338Z,33.38
2022-08-26T11:48:31.305Z,33.38
2022-08-26T11:50:34.249Z,33.45
2022-08-26T11:52:37.491Z,33.62
2022-08-26T11:54:40.318Z,33.77
2022-08-26T11:56:48.868Z,34.03
2022-08-26T11:58:56.603Z,34.09
2022-08-26T12:01:09.908Z,34.22
2022-08-26T12:03:21.542Z,34.24
2022-08-26T12:05:31.156Z,34.26
2022-08-26T12:07:34.288Z,34.38
2022-08-26T12:09:50.383Z,34.51
2022-08-26T12:11:57.998Z,34.63
2022-08-26T12:14:07.442Z,34.81
2022-08-26T12:16:10.648Z,35.06
2022-08-26T12:18:29.291Z,35.14
2022-08-26T12:20:48.802Z,35.50
2022-08-26T12:22:52.812Z,35.78
2022-08-26T12:25:05.382Z,35.82
2022-08-26T12:27:19.055Z,35.98
2022-08-26T12:29:28.368Z,36.02
2022-08-26T12:31:38.084Z,36.11
2022-08-26T12:33:41.190Z,36.26
2022-08-26T12:35:44.652Z,36.34
2022-08-26T12:37:51.593Z,36.36
2022-08-26T12:39:54.639Z,36.57
2022-08-26T12:42:05.844Z,36.66
2022-08-26T12:44:08.726Z,36.84
2022-08-26T12:46:18.729Z,36.98
2022-08-26T12:48:30.722Z,37.09
2022-08-26T12:50:38.161Z,37.27
2022-08-26T12:52:51.942Z,37.52
2022-08-26T12:55:00.433Z,37.41
2022-08-26T12:57:10.962Z,37.60
2022-08-26T12:59:24.085Z,37.89
2022-08-26T13:01:26.900Z,38.29
2022-08-26T13:03:38.588Z,38.47
2022-08-26T13:05:41.567Z,38.68
2022-08-26T13:07:44.256Z,38.87
2022-08-26T13:09:47.233Z,38.56
2022-08-26T13:11:50.025Z,38.44
2022-08-26T13:14:08.215Z,38.45
2022-08-26T13:16:12.257Z,38.60
2022-08-26T13:18:14.916Z,38.21
2022-08-26T13:20:17.543Z,38.22
2022-08-26T13:22:24.477Z,38.12
2022-08-26T13:24:34.020Z,37.94
2022-08-26T13:26:36.617Z,37.52
2022-08-26T13:28:39.401Z,37.68
2022-08-26T13:30:46.162Z,37.82
2022-08-26T13:32:49.190Z,38.04
2022-08-26T13:34:55.407Z,38.04
2022-08-26T13:36:58.626Z,38.12
2022-08-26T13:39:01.270Z,38.01
2022-08-26T13:41:05.052Z,38.12
2022-08-26T13:43:07.778Z,37.72
2022-08-26T13:45:11.351Z,37.55
2022-08-26T13:47:14.642Z,37.76
2022-08-26T13:49:17.380Z,37.90
2022-08-26T13:51:22.641Z,37.74
2022-08-26T13:53:25.647Z,38.17
2022-08-26T13:55:28.813Z,38.38
2022-08-26T13:57:31.491Z,38.21
2022-08-26T13:59:34.176Z,37.78
2022-08-26T14:01:37.478Z,37.69
2022-08-26T14:03:40.270Z,37.56
2022-08-26T14:05:44.846Z,37.26
2022-08-26T14:07:47.741Z,37.10
2022-08-26T14:09:50.606Z,37.44
2022-08-26T14:11:54.449Z,37.59
2022-08-26T14:13:57.579Z,37.29
2022-08-26T14:16:01.811Z,37.12
2022-08-26T14:18:07.794Z,37.50
2022-08-26T14:20:18.668Z,37.78
2022-08-26T14:22:22.776Z,37.92
2022-08-26T14:24:25.429Z,37.64
2022-08-26T14:26:29.948Z,37.33
2022-08-26T14:28:33.056Z,37.12
2022-08-26T14:30:39.413Z,37.04
2022-08-26T14:32:45.883Z,36.80
2022-08-26T14:34:48.739Z,36.92
2022-08-26T14:36:51.432Z,37.15
2022-08-26T14:38:55.861Z,37.27
2022-08-26T14:40:58.708Z,37.17
2022-08-26T14:43:01.736Z,36.78
2022-08-26T14:45:07.675Z,36.36
2022-08-26T14:47:11.563Z,36.03
2022-08-26T14:49:16.383Z,36.05
2022-08-26T14:51:21.729Z,36.27
2022-08-26T14:53:44.230Z,36.52
2022-08-26T14:55:47.274Z,36.42
2022-08-26T14:57:50.067Z,36.21
2022-08-26T14:59:52.758Z,35.95
2022-08-26T15:01:56.570Z,35.86
2022-08-26T15:04:01.528Z,35.77
2022-08-26T15:06:05.597Z,35.69
2022-08-26T15:08:11.151Z,35.41
2022-08-26T15:10:16.329Z,35.24
2022-08-26T15:12:19.009Z,35.03
2022-08-26T15:14:22.367Z,34.73
2022-08-26T15:16:25.565Z,34.43
2022-08-26T15:18:28.355Z,34.18
2022-08-26T15:22:42.566Z,33.65
2022-08-26T15:24:46.013Z,33.55
2022-08-26T15:26:49.068Z,33.48
2022-08-26T15:28:51.973Z,33.31
2022-08-26T15:30:54.982Z,33.12
2022-08-26T15:32:57.674Z,32.85
2022-08-26T15:35:00.417Z,32.62
2022-08-26T15:37:03.201Z,32.39
2022-08-26T15:39:08.141Z,32.15
2022-08-26T15:41:12.608Z,31.92
2022-08-26T15:43:28.394Z,31.80
2022-08-26T15:45:34.834Z,31.63
2022-08-26T15:47:46.624Z,31.50
2022-08-26T15:50:00.394Z,31.43
2022-08-26T15:52:05.324Z,31.37
2022-08-26T15:54:10.338Z,31.38
2022-08-26T15:56:13.376Z,31.33
2022-08-26T15:58:16.391Z,31.29
2022-08-26T16:00:20.974Z,31.21
2022-08-26T16:02:23.602Z,31.21
2022-08-26T16:04:26.826Z,31.15
2022-08-26T16:06:32.295Z,31.05
2022-08-26T16:08:36.508Z,30.95
2022-08-26T16:10:46.505Z,30.85
2022-08-26T16:12:51.994Z,30.68
2022-08-26T16:14:54.602Z,30.53
2022-08-26T16:17:00.327Z,30.40
2022-08-26T16:19:07.304Z,30.24
2022-08-26T16:21:14.809Z,30.11
2022-08-26T16:23:18.388Z,29.96
2022-08-26T16:25:21.081Z,29.90
2022-08-26T16:27:23.871Z,29.80
2022-08-26T16:29:26.929Z,29.75
2022-08-26T16:31:29.764Z,29.66
2022-08-26T16:33:32.465Z,29.50
2022-08-26T16:35:35.671Z,29.39
2022-08-26T16:37:39.407Z,29.34
2022-08-26T16:39:45.085Z,29.22
2022-08-26T16:41:47.924Z,29.22
2022-08-26T16:43:50.734Z,29.17
2022-08-26T16:45:53.422Z,29.10
2022-08-26T16:47:56.119Z,29.00
2022-08-26T16:49:58.804Z,28.94
2022-08-26T16:52:01.490Z,28.81
2022-08-26T16:54:04.658Z,28.75
2022-08-26T16:56:14.738Z,28.68
2022-08-26T16:58:18.603Z,28.67
2022-08-26T17:00:28.378Z,28.64
2022-08-26T17:02:31.046Z,28.53
2022-08-26T17:04:33.836Z,28.49
2022-08-26T17:06:36.492Z,28.45
2022-08-26T17:08:41.211Z,28.36
2022-08-26T17:10:43.926Z,28.29
2022-08-26T17:12:47.023Z,28.20
2022-08-26T17:14:49.772Z,28.14
2022-08-26T17:16:53.758Z,28.03
2022-08-26T17:18:58.336Z,27.97
2022-08-26T17:21:03.968Z,27.90
2022-08-26T17:23:06.726Z,27.86
2022-08-26T17:25:16.038Z,27.81
2022-08-26T17:27:18.624Z,27.78
2022-08-26T17:29:21.208Z,27.78
2022-08-26T17:31:24.543Z,27.73
2022-08-26T17:33:28.329Z,27.72
2022-08-26T17:35:30.979Z,27.67
2022-08-26T17:37:34.929Z,27.64
2022-08-26T17:39:44.063Z,27.58
2022-08-26T17:41:46.786Z,27.54
2022-08-26T17:43:49.781Z,27.46
2022-08-26T17:46:06.628Z,27.40
2022-08-26T17:48:11.411Z,27.39
2022-08-26T17:50:17.169Z,27.35
2022-08-26T17:52:19.872Z,27.34
2022-08-26T17:54:22.424Z,27.29
2022-08-26T17:56:28.953Z,27.26
2022-08-26T17:58:31.544Z,27.22
2022-08-26T18:00:37.352Z,27.17
2022-08-26T18:02:41.059Z,27.13
2022-08-26T18:04:43.957Z,27.09
2022-08-26T18:06:47.114Z,27.05
2022-08-26T18:08:50.435Z,27.01
2022-08-26T18:10:53.161Z,26.94
2022-08-26T18:12:55.817Z,26.93
2022-08-26T18:14:58.534Z,26.87
2022-08-26T18:17:01.899Z,26.87
2022-08-26T18:19:08.477Z,26.80
2022-08-26T18:21:17.107Z,26.74
2022-08-26T18:23:19.676Z,26.67
2022-08-26T18:25:22.470Z,26.59
2022-08-26T18:27:25.097Z,26.58
2022-08-26T18:29:28.081Z,26.58
2022-08-26T18:31:31.034Z,26.52
2022-08-26T18:33:33.834Z,26.49
2022-08-26T18:35:43.422Z,26.42
2022-08-26T18:37:46.229Z,26.39
2022-08-26T18:39:48.867Z,26.34
2022-08-26T18:41:53.436Z,26.31
2022-08-26T18:43:56.355Z,26.28
2022-08-26T18:46:03.950Z,26.22
2022-08-26T18:48:07.009Z,26.20
2022-08-26T18:50:11.078Z,26.12
2022-08-26T18:52:13.717Z,26.11
2022-08-26T18:54:17.010Z,26.09
2022-08-26T18:56:20.039Z,26.06
2022-08-26T18:58:22.907Z,26.04
2022-08-26T19:00:25.590Z,25.96
2022-08-26T19:02:28.484Z,25.97
2022-08-26T19:04:33.400Z,25.91
2022-08-26T19:06:36.513Z,25.88
2022-08-26T19:08:39.205Z,25.86
2022-08-26T19:10:47.666Z,25.83
2022-08-26T19:12:51.923Z,25.79
2022-08-26T19:14:55.128Z,25.73
2022-08-26T19:16:57.803Z,25.72
2022-08-26T19:19:01.623Z,25.67
2022-08-26T19:21:04.473Z,25.64
2022-08-26T19:23:28.108Z,25.61
2022-08-26T19:25:31.493Z,25.56
2022-08-26T19:27:34.096Z,25.50
2022-08-26T19:29:37.971Z,25.46
2022-08-26T19:31:41.577Z,25.41
2022-08-26T19:33:46.711Z,25.41
2022-08-26T19:35:49.432Z,25.37
2022-08-26T19:37:52.011Z,25.33
2022-08-26T19:39:54.625Z,25.29
2022-08-26T19:41:57.552Z,25.27
2022-08-26T19:44:04.706Z,25.22
2022-08-26T19:46:13.668Z,25.22
2022-08-26T19:48:16.424Z,25.19
2022-08-26T19:50:19.150Z,25.16
2022-08-26T19:52:23.400Z,25.13
2022-08-26T19:54:32.530Z,25.11
2022-08-26T19:56:35.205Z,25.09
2022-08-26T19:58:37.899Z,25.06
2022-08-26T20:00:42.580Z,25.02
2022-08-26T20:02:45.451Z,25.02
2022-08-26T20:04:48.348Z,24.98
2022-08-26T20:06:51.784Z,24.97
2022-08-26T20:09:00.778Z,24.93
2022-08-26T20:11:09.608Z,24.90
2022-08-26T20:13:12.411Z,24.86
2022-08-26T20:15:16.996Z,24.85
2022-08-26T20:17:19.720Z,24.79
2022-08-26T20:19:40.914Z,24.74
2022-08-26T20:21:44.386Z,24.73
2022-08-26T20:23:47.499Z,24.70
2022-08-26T20:25:50.192Z,24.68
2022-08-26T20:27:52.845Z,24.64
2022-08-26T20:29:56.467Z,24.62
2022-08-26T20:31:59.272Z,24.65
2022-08-26T20:34:02.803Z,24.63
2022-08-26T20:36:07.758Z,24.62
2022-08-26T20:38:10.747Z,24.63
2022-08-26T20:40:15.070Z,24.64
2022-08-26T20:42:20.372Z,24.64
2022-08-26T20:44:24.667Z,24.62
2022-08-26T20:46:27.943Z,24.61
2022-08-26T20:48:31.358Z,24.53
2022-08-26T20:50:34.395Z,24.51
2022-08-26T20:52:37.103Z,24.43
2022-08-26T20:54:40.616Z,24.37
2022-08-26T20:56:44.021Z,24.33
2022-08-26T20:58:47.213Z,24.26
2022-08-26T21:00:50.542Z,24.21
2022-08-26T21:02:53.913Z,24.17
2022-08-26T21:04:58.133Z,24.09
2022-08-26T21:07:01.229Z,24.09
2022-08-26T21:09:06.547Z,24.04
2022-08-26T21:11:09.731Z,24.03
2022-08-26T21:13:14.558Z,24.03
2022-08-26T21:15:17.711Z,24.01
2022-08-26T21:17:20.714Z,23.98
2022-08-26T21:19:23.976Z,23.92
2022-08-26T21:21:30.128Z,23.87
2022-08-26T21:23:33.741Z,23.83
2022-08-26T21:25:36.479Z,23.76
2022-08-26T21:27:39.261Z,23.72
2022-08-26T21:29:42.020Z,23.68
2022-08-26T21:31:46.754Z,23.66
2022-08-26T21:33:51.100Z,23.60
2022-08-26T21:35:54.387Z,23.60
2022-08-26T21:37:57.129Z,23.66
2022-08-26T21:40:02.184Z,23.67
2022-08-26T21:42:07.208Z,23.70
2022-08-26T21:44:10.932Z,23.73
2022-08-26T21:46:22.075Z,23.71
2022-08-26T21:48:25.095Z,23.75
2022-08-26T21:50:38.421Z,23.74
2022-08-26T21:52:41.062Z,23.77
2022-08-26T21:54:49.559Z,23.77
2022-08-26T21:56:52.820Z,23.78
2022-08-26T21:58:56.662Z,23.78
2022-08-26T22:00:59.617Z,23.79
2022-08-26T22:03:02.319Z,23.71
2022-08-26T22:05:05.437Z,23.65
2022-08-26T22:07:08.046Z,23.60
2022-08-26T22:09:11.814Z,23.53
2022-08-26T22:11:14.814Z,23.49
2022-08-26T22:13:22.432Z,23.49
2022-08-26T22:15:27.827Z,23.50
2022-08-26T22:17:30.527Z,23.51
2022-08-26T22:19:34.095Z,23.46
2022-08-26T22:21:53.695Z,23.39
2022-08-26T22:23:58.433Z,23.33
2022-08-26T22:26:01.485Z,23.32
2022-08-26T22:28:04.681Z,23.31
2022-08-26T22:30:07.785Z,23.32
2022-08-26T22:32:15.234Z,23.32
2022-08-26T22:34:19.764Z,23.31
2022-08-26T22:36:27.340Z,23.34
2022-08-26T22:38:30.600Z,23.34
2022-08-26T22:40:35.106Z,23.36
2022-08-26T22:42:38.699Z,23.37
2022-08-26T22:44:41.479Z,23.36
2022-08-26T22:46:45.473Z,23.37
2022-08-26T22:48:57.530Z,23.35
2022-08-26T22:51:00.436Z,23.32
2022-08-26T22:53:03.322Z,23.28
2022-08-26T22:55:06.733Z,23.25
2022-08-26T22:57:09.419Z,23.17
2022-08-26T22:59:13.020Z,23.16
2022-08-26T23:01:17.071Z,23.14
2022-08-26T23:03:19.948Z,23.11
2022-08-26T23:05:23.386Z,23.07
2022-08-26T23:07:26.056Z,23.03
2022-08-26T23:09:29.411Z,23.00
2022-08-26T23:11:32.518Z,22.99
2022-08-26T23:13:35.525Z,22.97
2022-08-26T23:15:42.305Z,22.97
2022-08-26T23:17:45.162Z,22.97
2022-08-26T23:19:47.861Z,22.96
2022-08-26T23:21:52.061Z,22.95
2022-08-26T23:23:54.651Z,22.93
2022-08-26T23:25:57.360Z,22.88
2022-08-26T23:28:01.926Z,22.85
2022-08-26T23:30:12.284Z,22.77
2022-08-26T23:32:14.952Z,22.75
2022-08-26T23:34:35.894Z,22.72
2022-08-26T23:36:38.767Z,22.64
2022-08-26T23:38:41.910Z,22.63
2022-08-26T23:40:44.604Z,22.62
2022-08-26T23:42:48.021Z,22.61
2022-08-26T23:44:50.802Z,22.61
2022-08-26T23:46:53.553Z,22.56
2022-08-26T23:48:56.174Z,22.47
2022-08-26T23:51:17.457Z,22.50
2022-08-26T23:53:22.481Z,22.43
2022-08-26T23:55:25.702Z,22.38
2022-08-26T23:57:28.339Z,22.29
2022-08-26T23:59:30.965Z,22.24
